Ever Ursula — 3FCB9 — position and weather

sailwx.info

Track history (hours):
 
Tides and Currents Weather Stations Pressure Air Temp Water Temp Dewpoint Dewpoint Depression Visibility Wind Speed Wind Dir Waves Ship Positions

Ever Ursula

Last reported at 2015-May-30 11:33 UTC. Time now 2015-May-30 14:38 UTC.
Position N 34°28' W 125°23'.

Type: Cargo ship. MMSI: 357737000.

Date/timePositionNaut miles runAvg speedWind from/ knotsBaromVisibWave heightAir tempDewpointWater temp
2015-May-30 11:33N 34°28' W 125°23'3616.8
2015-May-30 09:24N 34°47' W 126°01'1617.1
2015-May-30 08:28N 34°56' W 126°16'1817.1
2015-May-30 07:23N 35°07' W 126°35'1817.1
2015-May-30 06:20N 35°18' W 126°52'1417.5
2015-May-30 05:33N 35°26' W 127°06'1917.4
2015-May-30 04:27N 35°37' W 127°25'1917.4
2015-May-30 03:21N 35°48' W 127°44'27917.4
2015-May-29 11:20N 38°25' W 132°33'  
2015-May-24 00:00N 48°24' E 174°42'42817.8 270 / 221009.2 5.4 5.0 6.5 5.0 5.0
2015-May-23 00:00N 47°18' E 164°12'32217.9 270 / 271008.0 5.4 4.5 6.1 5.0 5.0
2015-May-22 06:00N 45°48' E 156°42'   270 / 271001.0 0.5 2.5 6.5 5.0 5.0
Track history (hours):
 
Tides and Currents Weather Stations Pressure Air Temp Water Temp Dewpoint Dewpoint Depression Visibility Wind Speed Wind Dir Waves Ship Positions

Ever Ursula

Last reported at 2015-May-30 11:33 UTC. Time now 2015-May-30 14:38 UTC.
Position N 34°28' W 125°23'.

Type: Cargo ship. MMSI: 357737000.

Date/timePositionNaut miles runAvg speedWind from/ knotsBaromVisibWave heightAir tempDewpointWater temp
2015-May-30 11:33N 34°28' W 125°23'3616.8
2015-May-30 09:24N 34°47' W 126°01'1617.1
2015-May-30 08:28N 34°56' W 126°16'1817.1
2015-May-30 07:23N 35°07' W 126°35'1817.1
2015-May-30 06:20N 35°18' W 126°52'1417.5
2015-May-30 05:33N 35°26' W 127°06'1917.4
2015-May-30 04:27N 35°37' W 127°25'1917.4
2015-May-30 03:21N 35°48' W 127°44'27917.4
2015-May-29 11:20N 38°25' W 132°33'  
2015-May-24 00:00N 48°24' E 174°42'42817.8 270 / 221009.2 5.4 5.0 6.5 5.0 5.0
2015-May-23 00:00N 47°18' E 164°12'32217.9 270 / 271008.0 5.4 4.5 6.1 5.0 5.0
2015-May-22 06:00N 45°48' E 156°42'   270 / 271001.0 0.5 2.5 6.5 5.0 5.0

Dump ship's entire track history